Time;durP1;ratioP1;P1;durP2;ratioP2;P2;SDS_P1;SDS_P2;PMS_P1;PMS_P2;Temp;Humidity;BMP_temperature;BMP_pressure;BME280_temperature;BME280_humidity;BME280_pressure;Samples;Min_cycle;Max_cycle;Signal;HPM_P1;HPM_P2
2022/05/31 00:00:18;;;;;;;7.27;3.87;;;12.00;99.90;;;;;;5071086;28;20598;-55
2022/05/31 00:02:45;;;;;;;5.93;3.10;;;12.00;99.90;;;;;;5070413;28;20261;-56
2022/05/31 00:05:13;;;;;;;4.47;3.80;;;12.00;99.90;;;;;;5069576;28;20202;-55
2022/05/31 00:07:41;;;;;;;5.70;3.50;;;12.00;99.90;;;;;;5069150;28;20198;-55
2022/05/31 00:10:10;;;;;;;3.80;3.33;;;11.80;99.90;;;;;;5072846;28;20202;-55
2022/05/31 00:12:38;;;;;;;8.83;3.70;;;11.90;99.90;;;;;;5075393;28;20639;-57
2022/05/31 00:15:06;;;;;;;6.43;4.00;;;11.90;99.90;;;;;;5070008;28;20286;-57
2022/05/31 00:17:33;;;;;;;3.70;3.33;;;11.90;99.90;;;;;;5075300;28;20222;-56
2022/05/31 00:20:00;;;;;;;3.90;3.23;;;11.90;99.90;;;;;;5074664;28;20199;-56
2022/05/31 00:22:28;;;;;;;5.53;3.87;;;12.00;99.90;;;;;;5074053;28;20250;-55
2022/05/31 00:24:55;;;;;;;8.20;4.30;;;12.00;99.90;;;;;;5082066;28;20285;-57
2022/05/31 00:27:23;;;;;;;5.37;3.57;;;12.00;99.90;;;;;;5076035;28;20645;-56
2022/05/31 00:29:50;;;;;;;5.00;3.90;;;12.10;99.90;;;;;;5085000;28;20556;-56
2022/05/31 00:32:22;;;;;;;5.73;3.77;;;12.10;99.90;;;;;;5074678;28;20660;-56
2022/05/31 00:34:51;;;;;;;7.27;3.93;;;12.00;99.90;;;;;;5074211;28;20722;-55
2022/05/31 00:37:18;;;;;;;4.60;3.70;;;12.00;99.90;;;;;;5081225;28;20761;-56
2022/05/31 00:39:46;;;;;;;5.67;3.57;;;12.00;99.90;;;;;;5072280;28;20292;-55
2022/05/31 00:42:17;;;;;;;3.70;3.30;;;12.00;99.90;;;;;;5069842;28;20647;-54
2022/05/31 00:44:44;;;;;;;4.83;4.33;;;12.00;99.90;;;;;;5074318;28;20558;-54
2022/05/31 00:47:24;;;;;;;6.80;4.07;;;12.00;99.90;;;;;;5081689;28;20198;-56
2022/05/31 00:50:03;;;;;;;5.53;3.93;;;12.00;99.90;;;;;;5082903;28;20198;-56
2022/05/31 00:52:40;;;;;;;5.37;4.00;;;12.00;99.90;;;;;;5077780;28;20226;-56
2022/05/31 00:55:21;;;;;;;5.30;3.77;;;12.10;99.90;;;;;;5075643;28;20202;-58
2022/05/31 00:58:00;;;;;;;5.20;3.67;;;12.00;99.90;;;;;;5074805;28;20712;-56
2022/05/31 01:00:27;;;;;;;7.23;3.90;;;12.10;99.90;;;;;;5074336;28;20203;-56
2022/05/31 01:02:54;;;;;;;5.70;4.03;;;12.20;99.90;;;;;;5075513;28;20331;-56
2022/05/31 01:05:22;;;;;;;5.87;4.23;;;12.10;99.90;;;;;;5071589;28;20655;-55
2022/05/31 01:07:48;;;;;;;5.80;3.67;;;12.10;99.90;;;;;;5076464;28;20222;-56
2022/05/31 01:10:16;;;;;;;7.90;4.20;;;11.90;99.90;;;;;;5074024;28;20548;-54
2022/05/31 01:12:46;;;;;;;7.23;4.13;;;12.00;99.90;;;;;;5074429;28;20233;-55
2022/05/31 01:15:16;;;;;;;6.00;3.57;;;11.90;99.90;;;;;;5070882;28;20301;-55
2022/05/31 01:17:43;;;;;;;7.10;3.77;;;11.90;99.90;;;;;;5072252;28;20939;-55
2022/05/31 01:20:17;;;;;;;5.50;4.30;;;11.90;99.90;;;;;;5069741;28;21154;-55
2022/05/31 01:22:56;;;;;;;6.50;4.00;;;11.90;99.90;;;;;;5079104;28;20231;-55
2022/05/31 01:25:25;;;;;;;5.77;4.17;;;12.00;99.90;;;;;;5072731;28;20296;-55
2022/05/31 01:28:00;;;;;;;5.13;3.47;;;11.90;99.90;;;;;;5074912;28;20195;-57
2022/05/31 01:30:30;;;;;;;7.60;3.97;;;12.00;99.90;;;;;;5070856;28;22150;-56
2022/05/31 01:33:28;;;;;;;7.90;4.30;;;11.90;99.90;;;;;;5072979;28;20259;-55
2022/05/31 01:36:12;;;;;;;3.87;3.37;;;12.00;99.90;;;;;;5044316;28;20197;-57
2022/05/31 01:38:44;;;;;;;5.90;3.97;;;12.00;99.90;;;;;;5069661;28;20242;-56
2022/05/31 01:41:23;;;;;;;5.40;4.17;;;12.00;99.90;;;;;;5072758;28;20762;-55
2022/05/31 01:43:52;;;;;;;4.87;3.87;;;12.10;99.90;;;;;;5075632;28;20247;-55
2022/05/31 01:46:29;;;;;;;7.07;4.33;;;12.20;99.90;;;;;;5074944;28;20281;-55
2022/05/31 01:48:57;;;;;;;6.10;3.90;;;12.10;99.90;;;;;;5074648;28;20617;-55
2022/05/31 01:51:24;;;;;;;6.77;3.57;;;12.10;99.90;;;;;;5077090;28;20268;-55
2022/05/31 01:53:53;;;;;;;4.37;3.93;;;12.00;99.90;;;;;;5070078;28;20237;-54
2022/05/31 01:56:21;;;;;;;4.97;3.70;;;12.00;99.90;;;;;;5069911;28;20596;-55
2022/05/31 01:58:49;;;;;;;4.23;3.67;;;12.00;99.90;;;;;;5075591;28;20796;-55
2022/05/31 02:01:17;;;;;;;5.03;3.60;;;11.90;99.90;;;;;;5074160;28;20593;-54
2022/05/31 02:03:45;;;;;;;6.17;4.00;;;11.70;99.90;;;;;;5070869;28;20517;-54
2022/05/31 02:06:37;;;;;;;4.93;4.07;;;11.70;99.90;;;;;;5075442;28;20231;-54
2022/05/31 02:09:07;;;;;;;5.90;3.60;;;11.80;99.90;;;;;;5077145;28;20645;-54
2022/05/31 02:11:35;;;;;;;5.93;3.87;;;11.90;99.90;;;;;;5075608;28;20230;-55
2022/05/31 02:14:03;;;;;;;4.60;3.73;;;11.80;99.90;;;;;;5077737;28;20733;-55
2022/05/31 02:16:30;;;;;;;4.50;3.83;;;11.80;99.90;;;;;;5071247;28;20238;-55
2022/05/31 02:19:15;;;;;;;6.97;4.00;;;11.80;99.90;;;;;;5077179;28;20243;-55
2022/05/31 02:21:42;;;;;;;6.97;3.70;;;11.70;99.90;;;;;;5073251;28;20215;-55
2022/05/31 02:24:11;;;;;;;4.43;3.90;;;11.80;99.90;;;;;;5076829;28;20240;-55
2022/05/31 02:26:42;;;;;;;4.60;3.77;;;11.70;99.90;;;;;;5077215;28;20226;-55
2022/05/31 02:29:11;;;;;;;11.00;4.10;;;11.70;99.90;;;;;;5084627;28;20198;-59
2022/05/31 02:31:39;;;;;;;5.60;3.90;;;11.70;99.90;;;;;;5076696;28;20242;-55
2022/05/31 02:34:06;;;;;;;5.50;4.47;;;11.50;99.90;;;;;;5080176;28;20207;-55
2022/05/31 02:36:34;;;;;;;4.67;3.77;;;11.30;99.90;;;;;;5080186;28;20264;-56
2022/05/31 02:39:02;;;;;;;6.00;3.90;;;11.30;99.90;;;;;;5077435;28;20203;-55
2022/05/31 02:41:31;;;;;;;4.90;3.80;;;11.40;99.90;;;;;;5075344;28;20224;-55
2022/05/31 02:43:59;;;;;;;5.07;4.00;;;11.50;99.90;;;;;;5080922;28;20198;-55
2022/05/31 02:46:26;;;;;;;7.93;4.37;;;11.50;99.90;;;;;;5075758;28;20248;-55
2022/05/31 02:48:54;;;;;;;6.73;3.87;;;11.60;99.90;;;;;;5080415;28;20203;-55
2022/05/31 02:51:21;;;;;;;6.17;3.57;;;11.70;99.90;;;;;;5078812;28;20201;-55
2022/05/31 02:53:48;;;;;;;6.57;3.90;;;11.60;99.90;;;;;;5075698;28;20254;-55
2022/05/31 02:56:15;;;;;;;5.23;4.43;;;11.60;99.90;;;;;;5073078;28;20238;-55
2022/05/31 02:58:41;;;;;;;5.40;3.80;;;11.50;99.90;;;;;;5082104;28;20262;-55
2022/05/31 03:01:23;;;;;;;5.97;3.37;;;11.50;99.90;;;;;;5081156;28;20673;-56
2022/05/31 03:03:50;;;;;;;7.20;4.03;;;11.40;99.90;;;;;;5077208;28;20669;-55
2022/05/31 03:06:19;;;;;;;7.37;4.10;;;11.30;99.90;;;;;;5072058;28;20680;-55
2022/05/31 03:08:47;;;;;;;4.43;4.03;;;11.40;99.90;;;;;;5071738;28;20261;-55
2022/05/31 03:11:23;;;;;;;7.10;3.80;;;11.30;99.90;;;;;;5071679;28;20311;-55
2022/05/31 03:13:54;;;;;;;6.17;4.03;;;11.30;99.90;;;;;;5073857;28;20202;-55
2022/05/31 03:16:23;;;;;;;6.67;4.30;;;11.20;99.90;;;;;;5076599;28;20201;-55
2022/05/31 03:19:02;;;;;;;6.00;3.97;;;11.20;99.90;;;;;;5076626;28;20716;-55
2022/05/31 03:21:41;;;;;;;6.93;4.33;;;11.20;99.90;;;;;;5078152;28;20208;-55
2022/05/31 03:24:12;;;;;;;5.70;3.90;;;11.30;99.90;;;;;;5074484;28;20261;-54
2022/05/31 03:26:43;;;;;;;6.20;4.60;;;11.30;99.90;;;;;;5069951;28;20264;-55
2022/05/31 03:29:11;;;;;;;5.40;3.90;;;11.30;99.90;;;;;;5073360;28;20686;-55
2022/05/31 03:31:38;;;;;;;6.30;4.30;;;11.40;99.90;;;;;;5073924;28;20241;-55
2022/05/31 03:34:06;;;;;;;4.83;3.47;;;11.40;99.90;;;;;;5076579;28;20678;-55
2022/05/31 03:36:33;;;;;;;5.63;4.20;;;11.10;99.90;;;;;;5074218;28;20288;-55
2022/05/31 03:39:01;;;;;;;7.43;4.37;;;11.10;99.90;;;;;;5079101;28;20208;-54
2022/05/31 03:41:32;;;;;;;6.00;4.60;;;11.00;99.90;;;;;;5068671;28;20243;-55
2022/05/31 03:43:59;;;;;;;6.10;4.40;;;11.00;99.90;;;;;;5073792;28;20627;-54
2022/05/31 03:46:26;;;;;;;5.27;4.30;;;10.90;99.90;;;;;;5071800;28;20193;-56
2022/05/31 03:48:54;;;;;;;6.97;4.03;;;11.10;99.90;;;;;;5079875;28;20191;-56
2022/05/31 03:51:21;;;;;;;7.00;4.87;;;11.20;99.90;;;;;;5074127;28;20267;-55
2022/05/31 03:53:48;;;;;;;8.27;4.57;;;11.00;99.90;;;;;;5070646;28;20239;-55
2022/05/31 03:56:14;;;;;;;8.33;4.70;;;10.80;99.90;;;;;;5069764;28;20274;-55
2022/05/31 03:58:41;;;;;;;5.47;4.50;;;10.70;99.90;;;;;;5076433;28;20230;-55
2022/05/31 04:01:08;;;;;;;5.40;4.77;;;10.80;99.90;;;;;;5076049;28;20204;-55
2022/05/31 04:03:35;;;;;;;7.33;4.77;;;11.00;99.90;;;;;;5073765;28;20208;-55
2022/05/31 04:06:04;;;;;;;5.63;4.70;;;11.10;99.90;;;;;;5074507;28;20665;-55
2022/05/31 04:08:31;;;;;;;5.57;4.47;;;11.20;99.90;;;;;;5074997;28;20241;-55
2022/05/31 04:10:58;;;;;;;7.40;5.03;;;11.20;99.90;;;;;;5068067;28;20209;-55
2022/05/31 04:13:26;;;;;;;7.27;5.07;;;11.30;99.90;;;;;;5066670;28;20630;-56
2022/05/31 04:16:10;;;;;;;7.63;4.63;;;11.40;99.90;;;;;;5076792;28;20194;-56
2022/05/31 04:18:38;;;;;;;5.87;4.90;;;11.20;99.90;;;;;;5069153;28;20271;-55
2022/05/31 04:21:08;;;;;;;8.23;4.97;;;11.30;99.90;;;;;;5068533;28;20328;-55
2022/05/31 04:26:20;;;;;;;8.27;4.93;;;11.20;99.90;;;;;;5073014;28;20230;-55
2022/05/31 04:28:48;;;;;;;8.33;5.40;;;11.30;99.90;;;;;;5075322;28;20659;-55
2022/05/31 04:31:15;;;;;;;10.43;5.07;;;11.30;99.90;;;;;;5080997;28;20283;-55
2022/05/31 04:33:42;;;;;;;6.67;4.60;;;11.30;99.90;;;;;;5070944;28;20233;-56
2022/05/31 04:36:11;;;;;;;6.50;5.13;;;11.30;99.90;;;;;;5068341;28;20200;-55
2022/05/31 04:38:38;;;;;;;5.53;5.00;;;11.40;99.90;;;;;;5073691;28;20259;-55
2022/05/31 04:41:06;;;;;;;10.27;5.33;;;11.40;99.90;;;;;;5071969;28;20211;-55
2022/05/31 04:43:33;;;;;;;5.90;4.80;;;11.30;99.90;;;;;;5071291;28;20236;-56
2022/05/31 04:46:16;;;;;;;7.33;5.20;;;11.30;99.90;;;;;;5071289;28;20653;-55
2022/05/31 04:48:44;;;;;;;6.70;5.40;;;11.30;99.90;;;;;;5075137;28;20192;-54
2022/05/31 04:51:12;;;;;;;8.63;5.53;;;11.20;99.90;;;;;;5072669;28;20531;-56
2022/05/31 04:53:40;;;;;;;9.83;5.50;;;11.20;99.90;;;;;;5077983;28;20714;-55
2022/05/31 04:56:10;;;;;;;6.83;5.47;;;11.30;99.90;;;;;;5076034;28;20210;-55
2022/05/31 04:58:37;;;;;;;7.07;5.07;;;11.40;99.90;;;;;;5079869;28;20296;-55
2022/05/31 05:01:06;;;;;;;7.13;6.00;;;11.50;99.90;;;;;;5072290;28;20204;-54
2022/05/31 05:03:34;;;;;;;8.07;5.40;;;11.50;99.90;;;;;;5074632;28;20207;-57
2022/05/31 05:06:04;;;;;;;7.33;5.53;;;11.60;99.90;;;;;;5075560;28;20294;-56
2022/05/31 05:08:32;;;;;;;7.40;5.40;;;11.50;99.90;;;;;;5069499;28;20195;-56
2022/05/31 05:11:00;;;;;;;10.77;6.07;;;11.50;99.90;;;;;;5070839;28;20796;-55
2022/05/31 05:13:28;;;;;;;7.97;6.10;;;11.40;99.90;;;;;;5069235;28;20286;-55
2022/05/31 05:15:55;;;;;;;14.27;5.77;;;11.60;99.90;;;;;;5067927;28;20297;-56
2022/05/31 05:18:23;;;;;;;9.27;6.40;;;11.50;99.90;;;;;;5069967;28;20640;-56
2022/05/31 05:20:50;;;;;;;8.23;6.43;;;11.50;99.90;;;;;;5077220;28;20201;-56
2022/05/31 05:23:17;;;;;;;11.47;6.87;;;11.70;99.90;;;;;;5070067;28;20238;-56
2022/05/31 05:25:49;;;;;;;8.03;6.43;;;11.70;99.90;;;;;;5074160;28;20190;-55
2022/05/31 05:31:02;;;;;;;7.90;5.83;;;11.80;99.90;;;;;;5070028;28;20667;-55
2022/05/31 05:33:30;;;;;;;11.97;6.07;;;11.90;99.90;;;;;;5069635;28;20201;-56
2022/05/31 05:35:57;;;;;;;8.70;7.07;;;11.90;99.90;;;;;;5073224;28;20231;-56
2022/05/31 05:38:24;;;;;;;8.33;5.90;;;11.90;99.90;;;;;;5077225;28;20231;-55
2022/05/31 05:40:51;;;;;;;7.83;6.43;;;11.90;99.90;;;;;;5063519;28;20196;-55
2022/05/31 05:43:18;;;;;;;9.03;6.87;;;11.90;99.90;;;;;;5071773;28;20303;-56
2022/05/31 05:45:45;;;;;;;10.93;7.03;;;11.90;99.90;;;;;;5067867;28;20224;-55
2022/05/31 05:48:12;;;;;;;9.63;6.30;;;11.80;99.90;;;;;;5068122;28;20660;-55
2022/05/31 05:50:40;;;;;;;9.73;6.80;;;11.70;99.90;;;;;;5066145;28;20643;-55
2022/05/31 05:53:10;;;;;;;11.77;6.97;;;11.80;99.90;;;;;;5072708;28;20786;-55
2022/05/31 05:55:38;;;;;;;9.10;6.63;;;11.90;99.90;;;;;;5065202;28;20674;-57
2022/05/31 05:58:09;;;;;;;8.63;7.30;;;11.90;99.90;;;;;;5065588;28;20296;-55
2022/05/31 06:00:47;;;;;;;8.40;7.47;;;11.90;99.90;;;;;;5068710;28;20276;-54
2022/05/31 06:03:35;;;;;;;8.57;7.30;;;12.00;99.90;;;;;;5079342;28;20218;-55
2022/05/31 06:06:02;;;;;;;9.27;8.00;;;12.00;99.90;;;;;;5071034;28;20685;-55
2022/05/31 06:08:50;;;;;;;10.40;7.20;;;12.10;99.90;;;;;;5069304;28;20229;-55
2022/05/31 06:11:25;;;;;;;11.43;8.00;;;12.20;99.90;;;;;;5067051;28;20234;-55
2022/05/31 06:13:56;;;;;;;9.73;7.20;;;12.40;99.90;;;;;;5068839;28;20225;-55
2022/05/31 06:16:26;;;;;;;11.47;8.33;;;12.40;99.90;;;;;;5073857;28;20626;-54
2022/05/31 06:19:11;;;;;;;10.90;6.90;;;12.40;99.90;;;;;;5072031;28;20230;-56
2022/05/31 06:21:38;;;;;;;10.40;7.10;;;12.50;99.90;;;;;;5066356;28;20289;-56
2022/05/31 06:24:05;;;;;;;9.53;8.53;;;12.50;99.90;;;;;;5074977;28;20678;-55
2022/05/31 06:26:32;;;;;;;8.57;7.60;;;12.50;99.90;;;;;;5065856;28;20284;-55
2022/05/31 06:28:59;;;;;;;10.93;7.40;;;12.50;99.90;;;;;;5071730;28;20856;-56
2022/05/31 06:31:26;;;;;;;10.73;8.03;;;12.70;99.90;;;;;;5070751;28;20226;-58
2022/05/31 06:33:53;;;;;;;10.43;8.37;;;12.70;99.90;;;;;;5073972;28;20295;-56
2022/05/31 06:36:20;;;;;;;12.70;8.20;;;12.90;99.90;;;;;;5068076;28;20207;-56
2022/05/31 06:38:47;;;;;;;8.70;7.80;;;13.10;99.90;;;;;;5069620;28;20659;-56
2022/05/31 06:41:14;;;;;;;11.03;8.00;;;13.20;99.90;;;;;;5066083;28;20632;-56
2022/05/31 06:43:41;;;;;;;9.83;7.60;;;13.40;99.90;;;;;;5071651;28;20250;-55
2022/05/31 06:46:10;;;;;;;10.77;7.87;;;13.50;99.90;;;;;;5067781;28;20208;-55
2022/05/31 06:48:37;;;;;;;11.00;8.33;;;13.50;99.90;;;;;;5066960;28;20665;-56
2022/05/31 06:51:06;;;;;;;11.53;7.70;;;13.60;99.90;;;;;;5067139;28;20199;-55
2022/05/31 06:58:57;;;;;;;10.13;7.80;;;14.40;99.90;;;;;;5067207;28;20267;-55
2022/05/31 07:01:44;;;;;;;10.77;8.43;;;14.50;99.90;;;;;;5060225;28;20307;-56
2022/05/31 07:04:11;;;;;;;12.03;8.27;;;14.60;99.90;;;;;;5073194;28;20263;-56
2022/05/31 07:06:38;;;;;;;10.20;8.17;;;14.70;99.90;;;;;;5075980;28;20200;-54
2022/05/31 07:09:05;;;;;;;10.77;7.30;;;14.70;99.90;;;;;;5070148;28;20197;-55
2022/05/31 07:11:32;;;;;;;11.07;8.50;;;14.20;99.90;;;;;;5064214;28;20249;-56
2022/05/31 07:14:00;;;;;;;9.97;8.00;;;14.20;99.90;;;;;;5075663;28;20662;-56
2022/05/31 07:16:27;;;;;;;11.10;7.80;;;14.30;99.90;;;;;;5075359;28;20668;-56
2022/05/31 07:18:56;;;;;;;13.27;8.30;;;14.50;99.90;;;;;;5072381;28;20298;-56
2022/05/31 07:21:24;;;;;;;10.33;8.50;;;14.30;99.90;;;;;;5077951;28;20693;-55
2022/05/31 07:23:55;;;;;;;10.70;7.60;;;14.40;99.90;;;;;;5074156;28;20285;-55
2022/05/31 07:26:21;;;;;;;9.67;7.60;;;14.60;99.90;;;;;;5067848;28;20287;-55
2022/05/31 07:29:04;;;;;;;8.37;7.53;;;14.80;99.90;;;;;;5080160;28;20195;-55
2022/05/31 07:31:31;;;;;;;10.10;7.93;;;15.20;99.90;;;;;;5076405;28;20219;-55
2022/05/31 07:33:58;;;;;;;8.50;7.57;;;15.30;99.90;;;;;;5075387;28;20654;-55
2022/05/31 07:36:25;;;;;;;10.60;8.13;;;15.80;99.90;;;;;;5072469;28;20197;-55
2022/05/31 07:38:52;;;;;;;9.87;8.40;;;15.70;99.90;;;;;;5076684;28;20392;-55
2022/05/31 07:41:19;;;;;;;12.40;8.50;;;15.60;99.90;;;;;;5069291;28;20741;-55
2022/05/31 07:43:46;;;;;;;8.90;8.00;;;15.40;99.90;;;;;;5074987;28;20317;-55
2022/05/31 07:46:13;;;;;;;10.47;8.73;;;15.30;99.90;;;;;;5073831;28;20197;-54
2022/05/31 07:48:41;;;;;;;9.47;7.90;;;15.30;99.90;;;;;;5071378;28;20934;-56
2022/05/31 07:51:08;;;;;;;9.87;8.17;;;15.60;99.90;;;;;;5070826;28;20197;-60
2022/05/31 07:53:35;;;;;;;8.70;7.10;;;15.50;99.90;;;;;;5072521;28;20199;-56
2022/05/31 07:56:07;;;;;;;7.47;6.67;;;16.10;96.20;;;;;;5071578;28;20208;-56
2022/05/31 07:58:39;;;;;;;8.67;7.37;;;16.40;72.10;;;;;;5073393;28;20205;-55
2022/05/31 08:01:10;;;;;;;8.20;6.67;;;16.50;28.10;;;;;;5070714;28;20225;-56
2022/05/31 08:03:38;;;;;;;9.73;7.07;;;16.70;33.50;;;;;;5074807;28;20660;-55
2022/05/31 08:06:10;;;;;;;7.43;6.73;;;16.60;9.70;;;;;;5072754;28;20287;-55
2022/05/31 08:08:37;;;;;;;7.93;6.93;;;16.50;13.60;;;;;;5071892;28;20199;-55
2022/05/31 08:11:11;;;;;;;9.23;7.03;;;17.00;1.00;;;;;;5065252;28;20227;-55
2022/05/31 08:13:38;;;;;;;7.43;6.63;;;17.50;28.70;;;;;;5073781;28;20210;-56
2022/05/31 08:16:07;;;;;;;9.50;7.80;;;17.80;1.90;;;;;;5068905;28;20653;-56
2022/05/31 08:18:35;;;;;;;8.13;6.90;;;17.80;13.50;;;;;;5074296;28;20626;-55
2022/05/31 08:21:05;;;;;;;9.07;7.27;;;17.10;30.00;;;;;;5074340;28;20636;-55
2022/05/31 08:23:33;;;;;;;7.67;6.80;;;16.30;31.40;;;;;;5075533;28;20229;-55
2022/05/31 08:26:01;;;;;;;10.23;6.40;;;16.40;21.90;;;;;;5071633;28;20240;-55
2022/05/31 08:28:29;;;;;;;7.23;5.33;;;17.10;34.80;;;;;;5073620;28;20238;-55
2022/05/31 08:31:01;;;;;;;7.73;4.90;;;17.60;1.00;;;;;;5069672;28;20241;-55
2022/05/31 08:33:28;;;;;;;7.30;5.80;;;17.50;1.00;;;;;;5072183;28;20662;-55
2022/05/31 08:35:56;;;;;;;5.57;4.73;;;17.30;1.00;;;;;;5077689;28;20205;-55
2022/05/31 08:38:31;;;;;;;7.37;5.00;;;17.50;6.20;;;;;;5071333;28;20209;-55
2022/05/31 08:41:33;;;;;;;6.37;5.10;;;17.50;1.00;;;;;;5076909;28;20208;-54
2022/05/31 08:44:28;;;;;;;6.00;4.50;;;17.60;1.00;;;;;;5079932;28;20522;-55
2022/05/31 08:47:10;;;;;;;6.67;5.03;;;18.10;1.00;;;;;;5072428;28;20224;-55
2022/05/31 08:52:59;;;;;;;6.17;4.97;;;17.10;1.00;;;;;;5069282;28;20740;-55
2022/05/31 08:58:30;;;;;;;6.60;4.97;;;17.50;1.00;;;;;;5075152;28;20325;-55
2022/05/31 09:00:59;;;;;;;7.97;5.00;;;17.00;1.00;;;;;;5073583;28;20632;-55
2022/05/31 09:03:34;;;;;;;5.77;4.87;;;17.00;1.00;;;;;;5074890;28;20217;-55
2022/05/31 09:06:07;;;;;;;7.30;4.83;;;17.80;1.00;;;;;;5075776;28;20283;-55
2022/05/31 09:09:11;;;;;;;9.70;4.70;;;18.70;1.00;;;;;;5072608;28;20189;-55
2022/05/31 09:11:40;;;;;;;7.20;4.37;;;18.20;1.00;;;;;;5066783;28;20287;-55
2022/05/31 09:14:16;;;;;;;5.20;3.60;;;18.00;1.00;;;;;;5078752;28;20321;-56
2022/05/31 09:17:02;;;;;;;5.07;4.13;;;18.40;1.00;;;;;;5076738;28;20669;-55
2022/05/31 09:19:51;;;;;;;7.30;5.30;;;18.90;13.50;;;;;;5078447;28;20642;-55
2022/05/31 09:22:24;;;;;;;7.60;4.77;;;18.30;1.00;;;;;;5073062;28;20246;-55
2022/05/31 09:24:50;;;;;;;5.67;5.17;;;19.20;1.00;;;;;;5081014;28;20666;-56
2022/05/31 09:27:38;;;;;;;6.40;5.03;;;19.40;6.40;;;;;;5068115;28;20276;-56
2022/05/31 09:30:17;;;;;;;6.97;5.33;;;19.30;7.50;;;;;;5069560;28;20206;-56
2022/05/31 09:32:47;;;;;;;7.57;5.27;;;18.90;1.00;;;;;;5070474;28;20565;-56
2022/05/31 09:35:38;;;;;;;6.00;4.37;;;19.60;1.00;;;;;;5073721;28;20532;-55
2022/05/31 09:38:38;;;;;;;6.13;3.13;;;20.10;1.00;;;;;;5072421;28;20283;-55
2022/05/31 09:41:22;;;;;;;5.40;3.40;;;19.80;1.00;;;;;;5051407;28;20291;-55
2022/05/31 09:44:07;;;;;;;4.23;3.27;;;20.00;1.00;;;;;;5082307;28;20649;-55
2022/05/31 09:46:52;;;;;;;8.97;3.63;;;19.80;1.00;;;;;;5072247;28;20266;-56
2022/05/31 09:49:52;;;;;;;5.03;3.40;;;19.40;1.00;;;;;;5076277;28;20208;-55
2022/05/31 09:52:30;;;;;;;5.57;3.27;;;19.00;1.00;;;;;;5031837;28;20235;-55
2022/05/31 09:58:14;;;;;;;7.53;5.03;;;19.00;1.00;;;;;;5068953;28;20269;-55
2022/05/31 10:01:04;;;;;;;6.63;3.30;;;19.20;1.00;;;;;;5071533;28;20292;-55
2022/05/31 10:03:48;;;;;;;4.70;3.40;;;19.70;1.00;;;;;;5070967;28;20208;-55
2022/05/31 10:06:24;;;;;;;4.30;3.83;;;19.80;1.00;;;;;;5068715;28;20193;-56
2022/05/31 10:08:52;;;;;;;4.63;3.80;;;19.70;1.00;;;;;;5075400;28;20212;-55
2022/05/31 10:11:37;;;;;;;4.70;4.03;;;19.20;1.00;;;;;;5075462;28;20261;-56
2022/05/31 10:14:20;;;;;;;5.27;4.03;;;19.70;1.00;;;;;;5071640;28;20200;-55
2022/05/31 10:16:49;;;;;;;5.67;3.97;;;19.30;1.00;;;;;;5067622;28;20203;-55
2022/05/31 10:19:30;;;;;;;5.10;4.20;;;19.30;1.00;;;;;;5073129;28;20563;-55
2022/05/31 10:22:17;;;;;;;5.23;3.90;;;19.70;1.00;;;;;;5071883;28;20234;-55
2022/05/31 10:24:44;;;;;;;4.03;3.63;;;20.20;53.90;;;;;;5077906;28;20240;-55
2022/05/31 10:27:18;;;;;;;4.20;3.73;;;20.40;47.60;;;;;;5065702;28;21193;-55
2022/05/31 10:29:51;;;;;;;5.23;3.30;;;19.10;1.00;;;;;;5069913;28;20196;-55
2022/05/31 10:32:23;;;;;;;5.57;3.93;;;18.40;1.00;;;;;;5070834;28;20594;-55
2022/05/31 10:35:14;;;;;;;7.57;4.40;;;18.20;1.00;;;;;;5074517;28;20199;-56
2022/05/31 10:38:30;;;;;;;5.93;3.73;;;18.20;1.00;;;;;;5067831;28;20507;-55
2022/05/31 10:41:06;;;;;;;5.00;4.40;;;19.10;1.00;;;;;;5056099;28;20210;-55
2022/05/31 10:43:37;;;;;;;7.83;4.27;;;19.50;28.80;;;;;;5057598;28;20279;-56
2022/05/31 10:46:11;;;;;;;6.17;3.97;;;19.20;1.00;;;;;;5053768;28;20203;-55
2022/05/31 10:48:48;;;;;;;5.27;3.63;;;19.00;1.00;;;;;;5060003;28;20203;-55
2022/05/31 10:51:33;;;;;;;7.20;4.33;;;18.50;1.00;;;;;;5056297;28;20565;-55
2022/05/31 10:54:43;;;;;;;5.37;4.03;;;18.70;1.00;;;;;;5062617;28;20226;-56
2022/05/31 10:57:30;;;;;;;7.43;4.43;;;18.70;1.00;;;;;;5054568;28;20868;-55
2022/05/31 11:00:02;;;;;;;5.50;3.90;;;18.10;1.00;;;;;;5056649;28;20334;-55
2022/05/31 11:02:47;;;;;;;7.13;4.07;;;18.10;1.00;;;;;;5055478;28;20203;-56
2022/05/31 11:05:19;;;;;;;4.17;3.77;;;18.30;1.00;;;;;;5061328;28;20204;-55
2022/05/31 11:11:35;;;;;;;6.17;3.77;;;18.30;1.00;;;;;;4963328;28;20195;-55
2022/05/31 11:14:07;;;;;;;5.33;3.30;;;19.10;1.00;;;;;;4970826;28;20321;-55
2022/05/31 11:16:45;;;;;;;5.23;4.10;;;20.00;1.00;;;;;;4995954;28;20197;-56
2022/05/31 11:19:31;;;;;;;4.57;4.13;;;20.40;1.00;;;;;;5004954;28;20215;-55
2022/05/31 11:22:45;;;;;;;9.07;4.93;;;20.40;1.00;;;;;;5001944;28;20278;-55
2022/05/31 11:25:17;;;;;;;6.77;4.10;;;19.60;1.00;;;;;;4937322;28;20326;-55
2022/05/31 11:27:58;;;;;;;6.23;3.87;;;19.70;1.00;;;;;;5004626;28;20682;-55
2022/05/31 11:30:54;;;;;;;5.60;3.90;;;19.30;1.00;;;;;;5000513;28;20292;-56
2022/05/31 11:33:20;;;;;;;6.00;4.10;;;19.00;1.00;;;;;;5003160;28;20264;-55
2022/05/31 11:36:07;;;;;;;6.10;3.83;;;18.70;1.00;;;;;;4996912;28;20313;-55
2022/05/31 11:38:52;;;;;;;8.00;4.57;;;19.00;1.00;;;;;;5001804;28;20209;-56
2022/05/31 11:41:34;;;;;;;7.27;4.33;;;19.10;1.00;;;;;;5005583;28;20277;-55
2022/05/31 11:44:32;;;;;;;5.17;4.53;;;18.90;1.00;;;;;;5017169;28;20316;-55
2022/05/31 11:47:19;;;;;;;5.00;4.50;;;18.40;1.00;;;;;;5074333;28;20195;-55
2022/05/31 11:49:49;;;;;;;5.47;4.10;;;18.70;1.00;;;;;;5078026;28;20191;-56
2022/05/31 11:52:46;;;;;;;8.57;4.63;;;18.70;1.00;;;;;;5071611;28;20194;-56
2022/05/31 11:55:30;;;;;;;5.40;4.27;;;18.80;1.00;;;;;;5072894;28;20220;-56
2022/05/31 11:58:16;;;;;;;6.20;4.37;;;18.40;1.00;;;;;;5069699;28;20319;-54
2022/05/31 12:00:59;;;;;;;6.43;4.73;;;18.40;1.00;;;;;;5076444;28;20200;-56
2022/05/31 12:03:38;;;;;;;5.00;4.50;;;18.10;1.00;;;;;;5077458;28;20688;-54
2022/05/31 12:06:14;;;;;;;5.37;4.10;;;18.30;1.00;;;;;;5082295;28;20204;-55
2022/05/31 12:09:03;;;;;;;7.50;4.70;;;18.30;1.00;;;;;;5073722;28;20279;-55
2022/05/31 12:11:40;;;;;;;6.73;5.07;;;18.50;1.00;;;;;;5081253;28;20208;-55
2022/05/31 12:14:11;;;;;;;10.20;4.60;;;18.90;1.00;;;;;;5078132;28;20207;-55
2022/05/31 12:16:39;;;;;;;5.03;4.53;;;19.00;1.00;;;;;;5083118;28;20555;-55
2022/05/31 12:19:44;;;;;;;6.50;5.07;;;19.10;1.00;;;;;;5081160;28;20207;-55
2022/05/31 12:22:18;;;;;;;5.47;4.77;;;18.70;1.00;;;;;;5077795;28;20237;-57
2022/05/31 12:24:54;;;;;;;6.90;5.27;;;19.40;1.00;;;;;;5076997;28;20248;-56
2022/05/31 12:27:28;;;;;;;5.17;4.67;;;20.00;1.70;;;;;;5084656;28;20194;-55
2022/05/31 12:29:55;;;;;;;5.60;4.90;;;20.00;1.00;;;;;;5076710;28;20231;-55
2022/05/31 12:32:25;;;;;;;9.73;5.80;;;20.00;1.00;;;;;;5078837;28;20250;-55
2022/05/31 12:34:53;;;;;;;8.33;5.10;;;20.20;1.00;;;;;;5080382;28;20240;-55
2022/05/31 12:37:19;;;;;;;7.43;4.83;;;19.50;1.00;;;;;;5078057;28;20767;-55
2022/05/31 12:39:50;;;;;;;6.53;5.27;;;19.00;1.00;;;;;;5083845;28;20205;-55
2022/05/31 12:42:26;;;;;;;6.13;5.30;;;18.40;1.00;;;;;;5067683;28;20291;-56
2022/05/31 12:45:32;;;;;;;7.77;5.30;;;18.20;1.00;;;;;;5074921;28;20221;-55
2022/05/31 12:48:19;;;;;;;6.50;4.73;;;18.20;1.00;;;;;;5064125;28;20257;-54
2022/05/31 12:50:55;;;;;;;8.77;4.97;;;18.30;1.00;;;;;;5076254;28;20608;-55
2022/05/31 12:53:37;;;;;;;5.73;4.70;;;18.10;1.00;;;;;;5072697;28;20229;-56
2022/05/31 12:56:10;;;;;;;6.23;5.13;;;17.90;1.00;;;;;;5079507;28;20207;-55
2022/05/31 12:58:47;;;;;;;5.60;3.97;;;17.60;1.00;;;;;;5079794;28;20371;-55
2022/05/31 13:01:14;;;;;;;9.60;4.57;;;16.20;88.10;;;;;;5081569;28;20190;-55
2022/05/31 13:03:50;;;;;;;6.90;4.77;;;14.90;99.90;;;;;;5077193;28;20199;-55
2022/05/31 13:06:48;;;;;;;9.47;5.03;;;14.10;99.90;;;;;;5071105;28;20267;-55
2022/05/31 13:09:24;;;;;;;5.80;4.40;;;13.70;99.90;;;;;;5079382;28;20731;-55
2022/05/31 13:20:39;;;;;;;7.40;4.83;;;13.70;99.90;;;;;;5076391;28;20254;-55
2022/05/31 13:23:06;;;;;;;7.77;4.80;;;13.70;99.90;;;;;;5078422;28;20305;-55
2022/05/31 13:25:51;;;;;;;5.53;4.23;;;13.50;99.90;;;;;;5090186;28;20210;-56
2022/05/31 13:28:36;;;;;;;6.20;4.87;;;13.30;99.90;;;;;;5091831;28;20195;-56
2022/05/31 13:31:09;;;;;;;5.10;4.13;;;13.00;99.90;;;;;;5081372;28;20190;-55
2022/05/31 13:33:37;;;;;;;6.00;3.43;;;13.00;99.90;;;;;;5075370;28;20285;-55
2022/05/31 13:36:04;;;;;;;8.33;4.30;;;12.80;99.90;;;;;;5068884;28;20652;-56
2022/05/31 13:38:35;;;;;;;4.83;3.83;;;13.00;99.90;;;;;;5069118;28;20251;-55
2022/05/31 13:41:04;;;;;;;5.40;4.70;;;13.30;99.90;;;;;;5068697;28;20322;-56
2022/05/31 13:43:38;;;;;;;4.53;3.77;;;13.20;99.90;;;;;;5074822;28;20246;-56
2022/05/31 13:46:18;;;;;;;4.60;3.73;;;13.00;99.90;;;;;;5072836;28;20216;-55
2022/05/31 13:48:50;;;;;;;5.03;3.40;;;13.00;99.90;;;;;;5075749;28;20670;-55
2022/05/31 13:51:23;;;;;;;4.80;3.50;;;13.20;99.90;;;;;;5076453;28;20235;-55